createdAt,value
2022-10-09T00:00:12.873Z,4.40
2022-10-09T00:00:45.789Z,4.54
2022-10-09T00:01:23.944Z,4.43
2022-10-09T00:01:55.522Z,4.46
2022-10-09T00:02:27.126Z,4.43
2022-10-09T00:02:58.648Z,4.41
2022-10-09T00:03:30.398Z,4.42
2022-10-09T00:04:01.997Z,4.43
2022-10-09T00:04:33.513Z,4.43
2022-10-09T00:05:05.631Z,4.40
2022-10-09T00:05:37.267Z,4.37
2022-10-09T00:06:11.244Z,4.36
2022-10-09T00:06:42.831Z,4.30
2022-10-09T00:07:14.368Z,4.28
2022-10-09T00:07:45.884Z,4.27
2022-10-09T00:08:17.383Z,4.26
2022-10-09T00:08:49.025Z,4.23
2022-10-09T00:09:20.676Z,4.15
2022-10-09T00:09:52.204Z,4.12
2022-10-09T00:10:23.910Z,4.09
2022-10-09T00:10:55.488Z,4.09
2022-10-09T00:11:28.959Z,4.08
2022-10-09T00:12:00.475Z,4.10
2022-10-09T00:12:32.085Z,4.09
2022-10-09T00:13:03.564Z,4.10
2022-10-09T00:13:35.755Z,4.03
2022-10-09T00:14:07.317Z,4.06
2022-10-09T00:14:38.838Z,4.06
2022-10-09T00:15:10.861Z,4.07
2022-10-09T00:15:44.133Z,4.03
2022-10-09T00:16:17.252Z,4.02
2022-10-09T00:16:48.822Z,4.02
2022-10-09T00:17:20.339Z,4.04
2022-10-09T00:17:52.094Z,4.07
2022-10-09T00:18:23.664Z,4.03
2022-10-09T00:18:55.301Z,4.00
2022-10-09T00:19:26.804Z,3.96
2022-10-09T00:19:58.440Z,3.97
2022-10-09T00:20:29.946Z,3.99
2022-10-09T00:21:01.662Z,4.02
2022-10-09T00:21:33.802Z,4.06
2022-10-09T00:22:05.312Z,4.07
2022-10-09T00:22:36.935Z,4.05
2022-10-09T00:23:09.379Z,4.12
2022-10-09T00:23:40.949Z,4.11
2022-10-09T00:24:12.421Z,4.09
2022-10-09T00:24:43.916Z,4.07
2022-10-09T00:25:15.537Z,4.07
2022-10-09T00:25:58.397Z,4.01
2022-10-09T00:26:30.092Z,4.04
2022-10-09T00:27:01.780Z,4.04
2022-10-09T00:27:33.334Z,4.10
2022-10-09T00:28:05.081Z,4.11
2022-10-09T00:28:38.732Z,4.08
2022-10-09T00:29:10.514Z,4.12
2022-10-09T00:29:42.019Z,4.13
2022-10-09T00:30:13.670Z,4.15
2022-10-09T00:30:45.193Z,4.21
2022-10-09T00:31:16.998Z,4.22
2022-10-09T00:31:50.463Z,4.13
2022-10-09T00:32:22.027Z,4.16
2022-10-09T00:32:53.969Z,4.22
2022-10-09T00:33:25.539Z,4.16
2022-10-09T00:33:57.237Z,4.21
2022-10-09T00:34:28.717Z,4.24
2022-10-09T00:35:00.188Z,4.23
2022-10-09T00:35:31.799Z,4.19
2022-10-09T00:36:08.238Z,4.15
2022-10-09T00:36:39.958Z,4.08
2022-10-09T00:37:11.582Z,4.10
2022-10-09T00:37:43.186Z,4.15
2022-10-09T00:38:15.182Z,4.14
2022-10-09T00:38:47.473Z,4.09
2022-10-09T00:39:19.152Z,4.08
2022-10-09T00:39:50.640Z,4.10
2022-10-09T00:40:24.634Z,4.09
2022-10-09T00:40:56.154Z,4.06
2022-10-09T00:41:29.926Z,4.08
2022-10-09T00:42:02.339Z,4.09
2022-10-09T00:42:33.817Z,4.04
2022-10-09T00:43:12.671Z,4.06
2022-10-09T00:43:53.737Z,4.06
2022-10-09T00:44:57.167Z,4.09
2022-10-09T00:45:29.384Z,4.10
2022-10-09T00:46:00.913Z,4.09
2022-10-09T00:46:41.817Z,4.14
2022-10-09T00:47:20.791Z,4.17
2022-10-09T00:47:58.282Z,4.21
2022-10-09T00:48:29.846Z,4.20
2022-10-09T00:49:11.178Z,4.22
2022-10-09T00:49:42.733Z,4.13
2022-10-09T00:50:23.172Z,4.20
2022-10-09T00:50:56.833Z,4.19
2022-10-09T00:51:29.966Z,4.18
2022-10-09T00:52:03.944Z,4.15
2022-10-09T00:52:35.614Z,4.10
2022-10-09T00:53:07.649Z,4.11
2022-10-09T00:53:39.259Z,4.03
2022-10-09T00:54:15.434Z,4.00
2022-10-09T00:54:47.024Z,3.96
2022-10-09T00:55:19.097Z,3.96
2022-10-09T00:55:51.067Z,3.97
2022-10-09T00:56:23.050Z,4.00
2022-10-09T00:56:54.820Z,4.02
2022-10-09T00:57:26.387Z,4.11
2022-10-09T00:57:59.502Z,4.06
2022-10-09T00:58:31.008Z,4.05
2022-10-09T00:59:03.169Z,4.03
2022-10-09T00:59:35.278Z,4.06
2022-10-09T01:00:10.640Z,4.04
2022-10-09T01:00:42.404Z,3.94
2022-10-09T01:01:13.956Z,3.94
2022-10-09T01:01:46.134Z,3.99
2022-10-09T01:02:18.283Z,3.93
2022-10-09T01:02:50.145Z,3.88
2022-10-09T01:03:21.896Z,3.87
2022-10-09T01:03:53.664Z,3.88
2022-10-09T01:04:25.292Z,3.95
2022-10-09T01:04:56.776Z,3.94
2022-10-09T01:05:53.805Z,3.93
2022-10-09T01:06:35.617Z,3.89
2022-10-09T01:07:17.995Z,3.87
2022-10-09T01:07:53.985Z,3.90
2022-10-09T01:08:38.506Z,3.81
2022-10-09T01:09:33.276Z,3.90
2022-10-09T01:10:17.992Z,3.84
2022-10-09T01:11:10.983Z,3.84
2022-10-09T01:12:03.578Z,3.80
2022-10-09T01:12:43.991Z,3.82
2022-10-09T01:13:23.851Z,3.91
2022-10-09T01:14:05.122Z,3.95
2022-10-09T01:14:42.461Z,3.97
2022-10-09T01:15:20.758Z,3.97
2022-10-09T01:16:07.268Z,3.89
2022-10-09T01:16:45.849Z,3.81
2022-10-09T01:17:24.824Z,3.91
2022-10-09T01:18:11.252Z,3.87
2022-10-09T01:18:53.885Z,3.92
2022-10-09T01:19:46.003Z,3.84
2022-10-09T01:20:42.342Z,3.83
2022-10-09T01:21:20.659Z,3.83
2022-10-09T01:22:20.006Z,3.85
2022-10-09T01:23:07.181Z,3.90
2022-10-09T01:23:44.752Z,3.93
2022-10-09T01:24:32.322Z,3.90
2022-10-09T01:25:11.673Z,3.93
2022-10-09T01:26:07.308Z,3.91
2022-10-09T01:27:03.387Z,3.94
2022-10-09T01:27:36.111Z,3.97
2022-10-09T01:28:07.929Z,3.97
2022-10-09T01:28:40.713Z,3.97
2022-10-09T01:29:13.368Z,3.91
2022-10-09T01:29:57.178Z,3.91
2022-10-09T01:30:29.626Z,3.91
2022-10-09T01:31:03.460Z,3.81
2022-10-09T01:31:39.551Z,3.76
2022-10-09T01:32:13.594Z,3.78
2022-10-09T01:32:47.509Z,3.67
2022-10-09T01:33:19.320Z,3.73
2022-10-09T01:33:51.367Z,3.70
2022-10-09T01:34:23.586Z,3.74
2022-10-09T01:34:55.681Z,3.71
2022-10-09T01:35:27.274Z,3.70
2022-10-09T01:35:59.915Z,3.79
2022-10-09T01:36:31.781Z,3.79
2022-10-09T01:37:03.738Z,3.82
2022-10-09T01:37:36.099Z,3.82
2022-10-09T01:38:07.707Z,3.81
2022-10-09T01:38:40.445Z,3.83
2022-10-09T01:39:15.827Z,3.87
2022-10-09T01:39:47.622Z,3.92
2022-10-09T01:40:20.068Z,3.94
2022-10-09T01:40:53.440Z,3.94
2022-10-09T01:41:25.290Z,3.96
2022-10-09T01:41:57.072Z,3.89
2022-10-09T01:42:29.382Z,3.84
2022-10-09T01:43:00.998Z,3.82
2022-10-09T01:43:32.481Z,3.76
2022-10-09T01:44:04.083Z,3.75
2022-10-09T01:44:35.761Z,3.79
2022-10-09T01:45:07.950Z,3.73
2022-10-09T01:45:42.436Z,3.77
2022-10-09T01:46:21.554Z,3.74
2022-10-09T01:46:53.259Z,3.73
2022-10-09T01:47:25.025Z,3.70
2022-10-09T01:47:56.574Z,3.66
2022-10-09T01:48:28.380Z,3.64
2022-10-09T01:49:02.970Z,3.71
2022-10-09T01:49:53.206Z,3.72
2022-10-09T01:50:28.146Z,3.68
2022-10-09T01:51:02.360Z,3.61
2022-10-09T01:51:41.315Z,3.52
2022-10-09T01:52:25.123Z,3.48
2022-10-09T01:53:00.936Z,3.62
2022-10-09T01:53:33.537Z,3.64
2022-10-09T01:54:07.473Z,3.68
2022-10-09T01:54:48.137Z,3.66
2022-10-09T01:55:45.074Z,3.62
2022-10-09T01:56:21.218Z,3.64
2022-10-09T01:56:54.109Z,3.58
2022-10-09T01:57:52.631Z,3.53
2022-10-09T01:58:27.289Z,3.49
2022-10-09T01:59:03.543Z,3.46
2022-10-09T01:59:38.647Z,3.47
2022-10-09T02:00:11.535Z,3.42
2022-10-09T02:00:53.001Z,3.46
2022-10-09T02:01:27.417Z,3.48
2022-10-09T02:02:00.420Z,3.42
2022-10-09T02:02:32.340Z,3.38
2022-10-09T02:03:07.006Z,3.42
2022-10-09T02:03:40.564Z,3.49
2022-10-09T02:04:13.977Z,3.53
2022-10-09T02:04:45.520Z,3.57
2022-10-09T02:05:24.587Z,3.53
2022-10-09T02:05:56.887Z,3.46
2022-10-09T02:06:29.108Z,3.46
2022-10-09T02:07:00.660Z,3.49
2022-10-09T02:07:32.620Z,3.48
2022-10-09T02:08:04.499Z,3.51
2022-10-09T02:08:37.474Z,3.50
2022-10-09T02:09:13.530Z,3.44
2022-10-09T02:09:45.963Z,3.48
2022-10-09T02:10:18.907Z,3.48
2022-10-09T02:10:53.668Z,3.50
2022-10-09T02:11:28.025Z,3.49
2022-10-09T02:12:07.909Z,3.45
2022-10-09T02:12:44.398Z,3.37
2022-10-09T02:13:16.024Z,3.34
2022-10-09T02:13:50.731Z,3.31
2022-10-09T02:14:22.611Z,3.27
2022-10-09T02:14:54.140Z,3.27
2022-10-09T02:15:31.196Z,3.26
2022-10-09T02:16:37.810Z,3.25
2022-10-09T02:17:13.055Z,3.30
2022-10-09T02:17:47.889Z,3.35
2022-10-09T02:18:25.875Z,3.36
2022-10-09T02:18:58.709Z,3.39
2022-10-09T02:19:44.161Z,3.45
2022-10-09T02:20:31.352Z,3.39
2022-10-09T02:21:11.168Z,3.31
2022-10-09T02:21:54.434Z,3.34
2022-10-09T02:22:29.075Z,3.34
2022-10-09T02:23:02.627Z,3.35
2022-10-09T02:23:35.087Z,3.33
2022-10-09T02:24:08.734Z,3.32
2022-10-09T02:24:41.405Z,3.29
2022-10-09T02:25:13.376Z,3.29
2022-10-09T02:25:45.086Z,3.33
2022-10-09T02:26:17.372Z,3.30
2022-10-09T02:26:49.916Z,3.30
2022-10-09T02:27:22.221Z,3.29
2022-10-09T02:27:53.788Z,3.30
2022-10-09T02:28:25.573Z,3.23
2022-10-09T02:28:58.181Z,3.23
2022-10-09T02:29:29.698Z,3.27
2022-10-09T02:30:01.775Z,3.29
2022-10-09T02:30:44.476Z,3.21
2022-10-09T02:31:34.242Z,3.23
2022-10-09T02:32:05.790Z,3.24
2022-10-09T02:32:37.336Z,3.17
2022-10-09T02:33:08.817Z,3.21
2022-10-09T02:33:40.684Z,3.24
2022-10-09T02:34:16.176Z,3.27
2022-10-09T02:34:47.679Z,3.20
2022-10-09T02:35:19.488Z,3.21
2022-10-09T02:35:51.017Z,3.16
2022-10-09T02:36:22.526Z,3.08
2022-10-09T02:36:54.219Z,3.15
2022-10-09T02:37:27.169Z,3.17
2022-10-09T02:37:58.651Z,3.19
2022-10-09T02:38:30.610Z,3.17
2022-10-09T02:39:02.961Z,3.22
2022-10-09T02:39:34.919Z,3.27
2022-10-09T02:40:10.510Z,3.29
2022-10-09T02:40:42.433Z,3.28
2022-10-09T02:41:13.933Z,3.26
2022-10-09T02:41:45.656Z,3.29
2022-10-09T02:42:17.268Z,3.20
2022-10-09T02:42:49.583Z,3.26
2022-10-09T02:43:21.340Z,3.23
2022-10-09T02:43:53.136Z,3.24
2022-10-09T02:44:24.748Z,3.24
2022-10-09T02:44:56.242Z,3.25
2022-10-09T02:45:27.762Z,3.25
2022-10-09T02:45:59.387Z,3.18
2022-10-09T02:46:31.330Z,3.19
2022-10-09T02:47:02.991Z,3.15
2022-10-09T02:47:34.558Z,3.11
2022-10-09T02:48:06.037Z,3.13
2022-10-09T02:48:37.552Z,3.17
2022-10-09T02:49:09.072Z,3.17
2022-10-09T02:49:40.584Z,3.24
2022-10-09T02:50:12.140Z,3.29
2022-10-09T02:50:44.081Z,3.31
2022-10-09T02:51:15.612Z,3.41
2022-10-09T02:51:47.143Z,3.41
2022-10-09T02:52:18.658Z,3.45
2022-10-09T02:52:50.429Z,3.48
2022-10-09T02:53:22.128Z,3.45
2022-10-09T02:53:54.334Z,3.38
2022-10-09T02:54:25.839Z,3.34
2022-10-09T02:54:57.328Z,3.32
2022-10-09T02:55:28.954Z,3.33
2022-10-09T02:56:00.591Z,3.24
2022-10-09T02:56:34.565Z,3.27
2022-10-09T02:57:09.580Z,3.24
2022-10-09T02:57:41.066Z,3.20
2022-10-09T02:58:12.598Z,3.21
2022-10-09T02:58:44.140Z,3.24
2022-10-09T02:59:15.700Z,3.22
2022-10-09T02:59:47.185Z,3.25
2022-10-09T03:00:18.724Z,3.31
2022-10-09T03:00:51.012Z,3.29
2022-10-09T03:01:23.305Z,3.25
2022-10-09T03:01:55.879Z,3.27
2022-10-09T03:02:27.559Z,3.28
2022-10-09T03:02:59.112Z,3.31
2022-10-09T03:03:30.691Z,3.38
2022-10-09T03:04:02.617Z,3.39
2022-10-09T03:04:34.314Z,3.31
2022-10-09T03:05:06.848Z,3.29
2022-10-09T03:05:38.320Z,3.27
2022-10-09T03:06:12.602Z,3.22
2022-10-09T03:06:44.092Z,3.26
2022-10-09T03:07:15.547Z,3.25
2022-10-09T03:07:51.440Z,3.17
2022-10-09T03:08:22.962Z,3.12
2022-10-09T03:08:54.982Z,3.12
2022-10-09T03:09:29.209Z,3.12
2022-10-09T03:10:04.693Z,3.09
2022-10-09T03:10:40.284Z,3.13
2022-10-09T03:11:14.073Z,3.10
2022-10-09T03:11:45.609Z,3.15
2022-10-09T03:12:21.308Z,3.16
2022-10-09T03:12:52.818Z,3.20
2022-10-09T03:13:24.669Z,3.17
2022-10-09T03:13:56.241Z,3.18
2022-10-09T03:14:27.728Z,3.15
2022-10-09T03:14:59.231Z,3.17
2022-10-09T03:15:34.344Z,3.25
2022-10-09T03:16:06.975Z,3.32
2022-10-09T03:16:38.635Z,3.25
2022-10-09T03:17:10.150Z,3.16
2022-10-09T03:17:41.666Z,3.16
2022-10-09T03:18:13.264Z,3.15
2022-10-09T03:18:45.856Z,3.03
2022-10-09T03:19:17.438Z,3.04
2022-10-09T03:19:49.228Z,3.08
2022-10-09T03:20:21.251Z,3.09
2022-10-09T03:20:52.851Z,3.07
2022-10-09T03:21:26.286Z,3.03
2022-10-09T03:21:57.776Z,3.04
2022-10-09T03:22:29.521Z,3.04
2022-10-09T03:23:01.033Z,3.02
2022-10-09T03:23:32.529Z,3.06
2022-10-09T03:24:04.135Z,3.09
2022-10-09T03:24:35.642Z,3.14
2022-10-09T03:25:07.754Z,3.16
2022-10-09T03:25:39.296Z,3.18
2022-10-09T03:26:13.542Z,3.18
2022-10-09T03:26:45.079Z,3.10
2022-10-09T03:27:16.564Z,3.05
2022-10-09T03:27:48.151Z,2.94
2022-10-09T03:28:19.663Z,2.96
2022-10-09T03:28:52.643Z,2.93
2022-10-09T03:29:24.279Z,2.98
2022-10-09T03:29:55.913Z,2.95
2022-10-09T03:30:27.755Z,2.92
2022-10-09T03:30:59.352Z,2.91
2022-10-09T03:31:51.037Z,2.89
2022-10-09T03:32:22.653Z,2.82
2022-10-09T03:32:54.196Z,2.73
2022-10-09T03:33:25.720Z,2.71
2022-10-09T03:33:57.396Z,2.66
2022-10-09T03:34:28.885Z,2.66
2022-10-09T03:35:00.481Z,2.62
2022-10-09T03:35:32.037Z,2.66
2022-10-09T03:36:05.784Z,2.73
2022-10-09T03:36:37.415Z,2.68
2022-10-09T03:37:08.976Z,2.71
2022-10-09T03:37:40.476Z,2.74
2022-10-09T03:38:12.066Z,2.76
2022-10-09T03:38:43.568Z,2.78
2022-10-09T03:39:15.031Z,2.81
2022-10-09T03:39:46.743Z,2.82
2022-10-09T03:40:18.415Z,2.83
2022-10-09T03:40:49.994Z,2.87
2022-10-09T03:41:21.539Z,2.84
2022-10-09T03:41:53.109Z,2.83
2022-10-09T03:42:24.831Z,2.84
2022-10-09T03:42:56.294Z,2.83
2022-10-09T03:43:28.970Z,2.83
2022-10-09T03:44:00.470Z,2.84
2022-10-09T03:44:32.186Z,2.84
2022-10-09T03:45:05.764Z,2.79
2022-10-09T03:45:41.344Z,2.84
2022-10-09T03:46:13.094Z,2.79
2022-10-09T03:46:44.684Z,2.78
2022-10-09T03:47:16.448Z,2.85
2022-10-09T03:47:47.926Z,2.84
2022-10-09T03:48:19.412Z,2.87
2022-10-09T03:48:51.617Z,2.91
2022-10-09T03:49:23.426Z,2.95
2022-10-09T03:49:54.892Z,3.01
2022-10-09T03:50:26.772Z,2.99
2022-10-09T03:50:58.370Z,2.99
2022-10-09T03:51:29.852Z,3.00
2022-10-09T03:52:01.396Z,2.98
2022-10-09T03:52:32.946Z,2.97
2022-10-09T03:53:05.403Z,2.96
2022-10-09T03:53:36.945Z,2.97
2022-10-09T03:54:08.598Z,2.94
2022-10-09T03:54:40.274Z,2.96
2022-10-09T03:55:11.799Z,2.96
2022-10-09T03:55:43.571Z,2.98
2022-10-09T03:56:15.091Z,3.02
2022-10-09T03:56:46.603Z,3.02
2022-10-09T03:57:18.175Z,3.07
2022-10-09T03:57:49.664Z,3.00
2022-10-09T03:58:21.464Z,3.01
2022-10-09T03:58:53.136Z,2.96
2022-10-09T03:59:24.671Z,2.94
2022-10-09T03:59:56.416Z,2.97
2022-10-09T04:00:28.551Z,2.99
2022-10-09T04:01:00.058Z,2.96
2022-10-09T04:01:31.676Z,2.97
2022-10-09T04:02:03.278Z,2.97
2022-10-09T04:02:34.928Z,2.97
2022-10-09T04:03:06.651Z,2.96
2022-10-09T04:03:38.358Z,3.01
2022-10-09T04:04:09.978Z,3.01
2022-10-09T04:04:41.679Z,2.99
2022-10-09T04:05:13.226Z,3.02
2022-10-09T04:05:44.738Z,3.05
2022-10-09T04:06:16.241Z,3.09
2022-10-09T04:06:47.774Z,3.04
2022-10-09T04:07:19.280Z,3.07
2022-10-09T04:07:51.176Z,3.05
2022-10-09T04:08:22.711Z,3.08
2022-10-09T04:08:54.368Z,3.07
2022-10-09T04:09:25.995Z,3.10
2022-10-09T04:09:57.610Z,3.15
2022-10-09T04:10:29.196Z,3.22
2022-10-09T04:11:00.987Z,3.20
2022-10-09T04:11:32.470Z,3.23
2022-10-09T04:12:04.783Z,3.30
2022-10-09T04:12:36.681Z,3.27
2022-10-09T04:13:08.212Z,3.24
2022-10-09T04:13:39.705Z,3.15
2022-10-09T04:14:11.339Z,3.13
2022-10-09T04:14:42.845Z,3.22
2022-10-09T04:15:14.429Z,3.25
2022-10-09T04:15:52.591Z,3.26
2022-10-09T04:16:24.165Z,3.28
2022-10-09T04:16:55.845Z,3.21
2022-10-09T04:17:27.501Z,3.14
2022-10-09T04:17:59.068Z,3.11
2022-10-09T04:18:30.725Z,3.13
2022-10-09T04:19:02.634Z,3.15
2022-10-09T04:19:34.179Z,3.18
2022-10-09T04:20:06.596Z,3.20
2022-10-09T04:20:38.101Z,3.22
2022-10-09T04:21:10.075Z,3.25
2022-10-09T04:21:41.659Z,3.15
2022-10-09T04:22:13.269Z,3.17
2022-10-09T04:22:44.858Z,3.11
2022-10-09T04:23:16.945Z,3.11
2022-10-09T04:23:48.657Z,3.07
2022-10-09T04:24:20.196Z,3.09
2022-10-09T04:24:51.734Z,3.14
2022-10-09T04:25:23.247Z,3.13
2022-10-09T04:25:55.860Z,3.08
2022-10-09T04:26:27.338Z,3.00
2022-10-09T04:26:59.086Z,2.99
2022-10-09T04:27:31.028Z,2.97
2022-10-09T04:28:02.638Z,2.97
2022-10-09T04:28:34.251Z,2.94
2022-10-09T04:29:05.987Z,2.92
2022-10-09T04:29:37.704Z,2.93
2022-10-09T04:30:10.738Z,2.90
2022-10-09T04:30:42.212Z,2.88
2022-10-09T04:31:13.721Z,2.86
2022-10-09T04:31:45.408Z,2.88
2022-10-09T04:32:16.987Z,2.89
2022-10-09T04:32:48.774Z,2.87
2022-10-09T04:33:20.808Z,2.82
2022-10-09T04:33:55.455Z,2.90
2022-10-09T04:34:26.973Z,2.90
2022-10-09T04:34:58.433Z,2.94
2022-10-09T04:35:30.028Z,2.94
2022-10-09T04:36:01.573Z,2.92
2022-10-09T04:36:33.103Z,2.86
2022-10-09T04:37:04.592Z,2.85
2022-10-09T04:37:36.774Z,2.85
2022-10-09T04:38:08.313Z,2.87
2022-10-09T04:38:39.819Z,2.89
2022-10-09T04:39:11.315Z,2.89
2022-10-09T04:39:43.096Z,2.90
2022-10-09T04:40:14.767Z,2.93
2022-10-09T04:41:00.351Z,2.89
2022-10-09T04:41:35.986Z,2.94
2022-10-09T04:42:09.658Z,2.98
2022-10-09T04:42:41.381Z,3.01
2022-10-09T04:43:12.865Z,2.93
2022-10-09T04:43:44.365Z,2.83
2022-10-09T04:44:16.030Z,2.79
2022-10-09T04:44:47.501Z,2.75
2022-10-09T04:45:19.866Z,2.81
2022-10-09T04:45:51.442Z,2.77
2022-10-09T04:46:23.856Z,2.75
2022-10-09T04:46:55.356Z,2.77
2022-10-09T04:47:26.852Z,2.77
2022-10-09T04:47:58.338Z,2.77
2022-10-09T04:48:29.832Z,2.79
2022-10-09T04:49:01.554Z,2.79
2022-10-09T04:49:33.075Z,2.78
2022-10-09T04:50:05.095Z,2.74
2022-10-09T04:50:39.255Z,2.71
2022-10-09T04:51:11.574Z,2.75
2022-10-09T04:51:43.998Z,2.70
2022-10-09T04:52:15.552Z,2.69
2022-10-09T04:52:47.366Z,2.69
2022-10-09T04:53:19.055Z,2.64
2022-10-09T04:53:50.577Z,2.62
2022-10-09T04:54:22.132Z,2.62
2022-10-09T04:54:53.624Z,2.66
2022-10-09T04:55:25.563Z,2.66
2022-10-09T04:55:57.055Z,2.64
2022-10-09T04:56:28.572Z,2.62
2022-10-09T04:57:00.094Z,2.62
2022-10-09T04:57:31.787Z,2.62
2022-10-09T04:58:03.328Z,2.67
2022-10-09T04:58:36.506Z,2.71
2022-10-09T04:59:08.003Z,2.71
2022-10-09T04:59:39.497Z,2.72
2022-10-09T05:00:11.951Z,2.77
2022-10-09T05:00:45.384Z,2.76
2022-10-09T05:01:22.863Z,2.70
2022-10-09T05:01:54.439Z,2.67
2022-10-09T05:02:26.433Z,2.73
2022-10-09T05:02:57.977Z,2.69
2022-10-09T05:03:29.541Z,2.72
2022-10-09T05:04:01.205Z,2.70
2022-10-09T05:04:32.753Z,2.68
2022-10-09T05:05:04.572Z,2.69
2022-10-09T05:05:36.285Z,2.73
2022-10-09T05:06:09.860Z,2.74
2022-10-09T05:06:41.374Z,2.79
2022-10-09T05:07:12.906Z,2.77
2022-10-09T05:07:44.440Z,2.81
2022-10-09T05:08:16.187Z,2.82
2022-10-09T05:08:48.127Z,2.81
2022-10-09T05:09:19.688Z,2.82
2022-10-09T05:09:51.258Z,2.69
2022-10-09T05:10:22.788Z,2.70
2022-10-09T05:10:54.359Z,2.69
2022-10-09T05:11:26.342Z,2.69
2022-10-09T05:11:58.018Z,2.62
2022-10-09T05:12:29.531Z,2.54
2022-10-09T05:13:01.033Z,2.49
2022-10-09T05:13:35.187Z,2.48
2022-10-09T05:14:06.754Z,2.54
2022-10-09T05:14:38.216Z,2.54
2022-10-09T05:15:10.120Z,2.52
2022-10-09T05:15:41.628Z,2.49
2022-10-09T05:16:16.391Z,2.52
2022-10-09T05:17:12.407Z,2.50
2022-10-09T05:17:43.398Z,2.52
2022-10-09T05:18:14.942Z,2.53
2022-10-09T05:18:49.180Z,2.55
2022-10-09T05:19:20.690Z,2.55
2022-10-09T05:19:52.206Z,2.54
2022-10-09T05:20:23.732Z,2.58
2022-10-09T05:20:55.552Z,2.62
2022-10-09T05:21:27.995Z,2.60
2022-10-09T05:22:00.496Z,2.59
2022-10-09T05:22:32.014Z,2.61
2022-10-09T05:23:03.597Z,2.56
2022-10-09T05:23:35.785Z,2.57
2022-10-09T05:24:10.327Z,2.60
2022-10-09T05:24:42.372Z,2.59
2022-10-09T05:25:14.565Z,2.59
2022-10-09T05:26:07.314Z,2.55
2022-10-09T05:26:39.118Z,2.57
2022-10-09T05:27:10.624Z,2.51
2022-10-09T05:27:42.131Z,2.55
2022-10-09T05:28:13.694Z,2.54
2022-10-09T05:28:45.810Z,2.48
2022-10-09T05:29:17.414Z,2.48
2022-10-09T05:29:48.971Z,2.49
2022-10-09T05:30:20.681Z,2.54
2022-10-09T05:30:52.218Z,2.56
2022-10-09T05:31:26.095Z,2.59
2022-10-09T05:31:58.068Z,2.57
2022-10-09T05:32:29.649Z,2.61
2022-10-09T05:33:01.168Z,2.63
2022-10-09T05:33:33.256Z,2.61
2022-10-09T05:34:05.073Z,2.61
2022-10-09T05:34:36.588Z,2.60
2022-10-09T05:35:08.510Z,2.58
2022-10-09T05:35:40.076Z,2.59
2022-10-09T05:36:11.643Z,2.61
2022-10-09T05:36:43.218Z,2.59
2022-10-09T05:37:14.812Z,2.63
2022-10-09T05:37:46.581Z,2.58
2022-10-09T05:38:18.353Z,2.61
2022-10-09T05:38:50.033Z,2.60
2022-10-09T05:39:21.565Z,2.60
2022-10-09T05:39:53.174Z,2.55
2022-10-09T05:40:28.984Z,2.56
2022-10-09T05:41:03.873Z,2.62
2022-10-09T05:41:35.394Z,2.67
2022-10-09T05:42:09.706Z,2.69
2022-10-09T05:42:41.283Z,2.66
2022-10-09T05:43:12.758Z,2.57
2022-10-09T05:43:45.613Z,2.62
2022-10-09T05:44:17.170Z,2.60
2022-10-09T05:44:48.697Z,2.61
2022-10-09T05:45:20.260Z,2.65
2022-10-09T05:45:52.296Z,2.67
2022-10-09T05:46:24.944Z,2.72
2022-10-09T05:46:56.509Z,2.71
2022-10-09T05:47:30.278Z,2.72
2022-10-09T05:48:01.794Z,2.74
2022-10-09T05:48:33.392Z,2.81
2022-10-09T05:49:06.329Z,2.83
2022-10-09T05:49:37.885Z,2.83
2022-10-09T05:50:09.455Z,2.85
2022-10-09T05:50:41.003Z,2.82
2022-10-09T05:51:15.168Z,2.81
2022-10-09T05:51:46.800Z,2.86
2022-10-09T05:52:18.348Z,2.87
2022-10-09T05:52:50.224Z,2.85
2022-10-09T05:53:21.966Z,2.89
2022-10-09T05:53:53.750Z,2.81
2022-10-09T05:54:25.299Z,2.76
2022-10-09T05:54:57.220Z,2.83
2022-10-09T05:55:29.096Z,2.83
2022-10-09T05:56:16.715Z,2.87
2022-10-09T05:56:48.303Z,2.73
2022-10-09T05:57:19.837Z,2.74
2022-10-09T05:57:53.279Z,2.72
2022-10-09T05:58:24.777Z,2.70
2022-10-09T05:59:10.060Z,2.66
2022-10-09T05:59:41.982Z,2.68
2022-10-09T06:00:14.221Z,2.70
2022-10-09T06:00:45.874Z,2.70
2022-10-09T06:01:18.054Z,2.72
2022-10-09T06:01:51.659Z,2.73
2022-10-09T06:02:23.351Z,2.75
2022-10-09T06:02:55.155Z,2.73
2022-10-09T06:03:26.749Z,2.77
2022-10-09T06:03:59.744Z,2.78
2022-10-09T06:04:31.260Z,2.81
2022-10-09T06:05:02.998Z,2.85
2022-10-09T06:05:34.489Z,2.91
2022-10-09T06:06:08.020Z,2.97
2022-10-09T06:06:40.881Z,3.02
2022-10-09T06:07:12.414Z,2.95
2022-10-09T06:07:44.007Z,2.97
2022-10-09T06:08:15.531Z,3.02
2022-10-09T06:08:47.044Z,3.02
2022-10-09T06:09:23.199Z,3.05
2022-10-09T06:09:54.957Z,3.10
2022-10-09T06:10:31.471Z,3.05
2022-10-09T06:11:10.943Z,3.05
2022-10-09T06:11:42.499Z,3.05
2022-10-09T06:12:14.045Z,3.09
2022-10-09T06:12:45.695Z,3.09
2022-10-09T06:13:17.262Z,3.02
2022-10-09T06:13:49.341Z,3.03
2022-10-09T06:14:22.218Z,3.08
2022-10-09T06:14:53.873Z,3.08
2022-10-09T06:15:25.449Z,3.07
2022-10-09T06:15:56.967Z,3.13
2022-10-09T06:16:31.085Z,3.09
2022-10-09T06:17:02.729Z,3.10
2022-10-09T06:17:34.321Z,3.10
2022-10-09T06:18:05.981Z,3.10
2022-10-09T06:18:38.135Z,3.14
2022-10-09T06:19:14.409Z,3.14
2022-10-09T06:19:45.929Z,3.16
2022-10-09T06:20:17.417Z,3.17
2022-10-09T06:20:56.174Z,3.16
2022-10-09T06:21:30.349Z,3.22
2022-10-09T06:22:01.884Z,3.16
2022-10-09T06:22:33.499Z,3.20
2022-10-09T06:23:05.114Z,3.23
2022-10-09T06:23:36.769Z,3.23
2022-10-09T06:24:08.787Z,3.17
2022-10-09T06:24:40.383Z,3.19
2022-10-09T06:25:13.041Z,3.27
2022-10-09T06:26:01.007Z,3.27
2022-10-09T06:26:33.069Z,3.35
2022-10-09T06:27:04.580Z,3.39
2022-10-09T06:27:36.291Z,3.46
2022-10-09T06:28:07.875Z,3.52
2022-10-09T06:28:39.920Z,3.52
2022-10-09T06:29:11.623Z,3.59
2022-10-09T06:29:43.130Z,3.56
2022-10-09T06:30:14.765Z,3.60
2022-10-09T06:30:46.350Z,3.60
2022-10-09T06:31:20.759Z,3.59
2022-10-09T06:31:52.370Z,3.63
2022-10-09T06:32:23.861Z,3.66
2022-10-09T06:32:55.376Z,3.63
2022-10-09T06:33:29.654Z,3.64
2022-10-09T06:34:03.299Z,3.76
2022-10-09T06:34:34.873Z,3.82
2022-10-09T06:35:07.087Z,3.86
2022-10-09T06:35:38.600Z,3.79
2022-10-09T06:36:19.230Z,3.84
2022-10-09T06:36:50.877Z,3.83
2022-10-09T06:37:22.366Z,3.81
2022-10-09T06:37:53.896Z,3.84
2022-10-09T06:38:25.593Z,3.95
2022-10-09T06:38:59.296Z,4.03
2022-10-09T06:39:30.841Z,4.03
2022-10-09T06:40:02.328Z,4.09
2022-10-09T06:40:37.696Z,4.10
2022-10-09T06:41:11.517Z,4.11
2022-10-09T06:41:43.011Z,4.15
2022-10-09T06:42:43.796Z,4.09
2022-10-09T06:43:21.920Z,4.10
2022-10-09T06:43:55.489Z,4.16
2022-10-09T06:44:27.104Z,4.23
2022-10-09T06:44:58.653Z,4.25
2022-10-09T06:45:30.774Z,4.31
2022-10-09T06:46:04.557Z,4.35
2022-10-09T06:46:38.054Z,4.39
2022-10-09T06:47:09.553Z,4.41
2022-10-09T06:47:41.056Z,4.44
2022-10-09T06:48:12.573Z,4.50
2022-10-09T06:48:44.303Z,4.59
2022-10-09T06:49:15.888Z,4.64
2022-10-09T06:49:47.661Z,4.68
2022-10-09T06:50:19.366Z,4.82
2022-10-09T06:50:50.928Z,4.97
2022-10-09T06:51:23.654Z,5.46
2022-10-09T06:51:55.177Z,6.23
2022-10-09T06:52:26.693Z,7.08
2022-10-09T06:52:58.262Z,7.85
2022-10-09T06:53:30.142Z,8.27
2022-10-09T06:54:03.801Z,8.99
2022-10-09T06:54:35.406Z,9.30
2022-10-09T06:55:07.265Z,9.68
2022-10-09T06:55:38.821Z,10.28
2022-10-09T06:56:11.312Z,10.71
2022-10-09T06:56:43.140Z,11.19
2022-10-09T06:57:14.668Z,11.74
2022-10-09T06:57:46.468Z,12.42
2022-10-09T06:58:18.054Z,12.60
2022-10-09T06:58:49.944Z,13.19
2022-10-09T06:59:21.447Z,13.51
2022-10-09T06:59:52.953Z,13.72
2022-10-09T07:00:24.564Z,13.88
2022-10-09T07:01:16.682Z,14.55
2022-10-09T07:01:48.327Z,14.64
2022-10-09T07:02:19.905Z,14.99
2022-10-09T07:02:51.844Z,15.46
2022-10-09T07:03:23.682Z,15.43
2022-10-09T07:03:57.583Z,15.59
2022-10-09T07:04:29.135Z,15.52
2022-10-09T07:05:00.637Z,15.59
2022-10-09T07:05:32.363Z,15.07
2022-10-09T07:06:07.646Z,15.43
2022-10-09T07:06:42.087Z,15.40
2022-10-09T07:07:13.758Z,16.15
2022-10-09T07:07:45.271Z,16.46
2022-10-09T07:08:16.808Z,15.81
2022-10-09T07:08:51.194Z,16.16
2022-10-09T07:09:22.710Z,15.97
2022-10-09T07:09:54.485Z,15.93
2022-10-09T07:10:25.998Z,16.03
2022-10-09T07:10:57.552Z,15.89
2022-10-09T07:11:34.788Z,15.50
2022-10-09T07:12:06.315Z,16.11
2022-10-09T07:12:38.482Z,16.14
2022-10-09T07:13:09.990Z,15.91
2022-10-09T07:13:42.691Z,16.31
2022-10-09T07:14:16.088Z,17.21
2022-10-09T07:14:47.723Z,17.71
2022-10-09T07:15:19.307Z,17.91
2022-10-09T07:15:50.801Z,16.61
2022-10-09T07:16:25.390Z,17.39
2022-10-09T07:16:57.143Z,18.05
2022-10-09T07:17:28.762Z,18.34
2022-10-09T07:18:02.975Z,17.28
2022-10-09T07:18:35.413Z,16.86
2022-10-09T07:19:08.428Z,16.82
2022-10-09T07:19:40.220Z,17.34
2022-10-09T07:20:12.144Z,16.65
2022-10-09T07:20:43.640Z,16.86
2022-10-09T07:21:15.743Z,17.22
2022-10-09T07:21:49.265Z,16.49
2022-10-09T07:22:23.620Z,17.73
2022-10-09T07:22:58.387Z,17.06